Terminal Aerodrome Forecast
Issued by NWS Spokane, WA

Home | Current Version | Previous Version | Text Only | Print | Product List | Glossary On
Versions: 1 2 3 4 5 6 7 8 9 10 11 12 13 14 15 16 17 18 19 20 21
000
FTUS46 KOTX 311138
TAFEAT
TAF
KEAT 311138Z 3112/0112 29007KT 2SM -RA SCT008 OVC025
     FM311700 31006KT P6SM -SHRA BKN040 OVC080
     FM312300 22006KT P6SM SCT060 BKN120=

USA.gov is the U.S. government's official web portal to all federal, state and local government web resources and services.